Time;durP1;ratioP1;P1;durP2;ratioP2;P2;SDS_P1;SDS_P2;PMS_P1;PMS_P2;Temp;Humidity;BMP_temperature;BMP_pressure;BME280_temperature;BME280_humidity;BME280_pressure;Samples;Min_cycle;Max_cycle;Signal;HPM_P1;HPM_P2
2022/05/18 00:01:00;;;;;;;1.57;0.90;;;17.60;99.90;;;;;;4936725;29;20580;-72
2022/05/18 00:03:30;;;;;;;2.90;1.00;;;17.70;99.90;;;;;;4936186;29;20649;-72
2022/05/18 00:06:00;;;;;;;2.40;0.80;;;17.60;99.90;;;;;;4936011;29;20220;-73
2022/05/18 00:08:28;;;;;;;1.30;0.90;;;17.70;99.90;;;;;;4936394;29;20205;-74
2022/05/18 00:10:55;;;;;;;1.40;1.00;;;17.70;99.90;;;;;;4936379;29;20664;-72
2022/05/18 00:13:23;;;;;;;2.93;0.93;;;17.70;99.90;;;;;;4936961;29;20248;-73
2022/05/18 00:15:50;;;;;;;2.27;1.00;;;17.70;99.90;;;;;;4937049;29;20215;-75
2022/05/18 00:18:17;;;;;;;3.43;1.00;;;17.70;99.90;;;;;;4936858;29;20219;-71
2022/05/18 00:20:44;;;;;;;2.27;0.90;;;17.60;99.90;;;;;;4936611;29;20208;-71
2022/05/18 00:23:11;;;;;;;1.63;0.93;;;17.60;99.90;;;;;;4936543;29;20223;-72
2022/05/18 00:25:40;;;;;;;2.60;1.23;;;17.60;99.90;;;;;;4936645;29;20291;-73
2022/05/18 00:28:08;;;;;;;1.37;0.90;;;17.60;99.90;;;;;;4936415;29;20668;-75
2022/05/18 00:30:38;;;;;;;2.03;0.90;;;17.50;99.90;;;;;;4936604;29;20213;-73
2022/05/18 00:33:06;;;;;;;1.20;0.90;;;17.50;99.90;;;;;;4936751;29;20236;-74
2022/05/18 00:35:34;;;;;;;1.40;0.90;;;17.50;99.90;;;;;;4936727;29;20209;-74
2022/05/18 00:38:01;;;;;;;1.10;0.87;;;17.60;99.90;;;;;;4936146;29;20205;-72
2022/05/18 00:40:29;;;;;;;2.00;1.80;;;17.60;99.90;;;;;;4936800;29;20226;-71
2022/05/18 00:42:56;;;;;;;2.73;0.80;;;17.60;99.90;;;;;;4936234;29;20212;-72
2022/05/18 00:45:23;;;;;;;2.60;0.87;;;17.60;99.90;;;;;;4936350;29;20205;-71
2022/05/18 00:47:51;;;;;;;1.93;0.97;;;17.60;99.90;;;;;;4936075;29;20205;-75
2022/05/18 00:50:22;;;;;;;1.97;1.20;;;17.70;99.90;;;;;;4936153;29;20219;-72
2022/05/18 00:52:52;;;;;;;1.13;0.80;;;17.70;99.90;;;;;;4936501;29;20236;-72
2022/05/18 00:55:23;;;;;;;0.93;0.70;;;17.60;99.90;;;;;;4935453;29;20235;-75
2022/05/18 00:57:53;;;;;;;3.10;0.90;;;17.70;99.90;;;;;;4936021;29;20216;-75
2022/05/18 01:00:21;;;;;;;1.77;1.37;;;17.70;99.90;;;;;;4935732;29;20211;-74
2022/05/18 01:02:53;;;;;;;2.10;1.00;;;17.80;99.90;;;;;;4935806;29;20205;-74
2022/05/18 01:05:24;;;;;;;1.37;0.90;;;17.80;99.90;;;;;;4934896;29;20470;-72
2022/05/18 01:07:54;;;;;;;1.30;0.80;;;17.80;99.90;;;;;;4935127;29;20583;-74
2022/05/18 01:10:22;;;;;;;1.03;0.70;;;17.80;99.90;;;;;;4935618;29;20213;-72
2022/05/18 01:12:49;;;;;;;4.00;0.90;;;17.80;99.90;;;;;;4934641;29;20239;-75
2022/05/18 01:15:18;;;;;;;3.90;0.80;;;17.90;99.90;;;;;;4935088;29;20233;-72
2022/05/18 01:17:48;;;;;;;1.80;0.97;;;17.90;99.90;;;;;;4935889;29;20209;-72
2022/05/18 01:20:21;;;;;;;1.50;0.90;;;18.00;99.90;;;;;;4935748;29;20211;-74
2022/05/18 01:22:57;;;;;;;2.30;1.33;;;18.00;99.90;;;;;;4935746;29;20340;-73
2022/05/18 01:25:38;;;;;;;1.27;0.90;;;18.10;99.90;;;;;;4935605;29;20300;-71
2022/05/18 01:28:08;;;;;;;1.13;0.83;;;18.10;99.90;;;;;;4935428;29;20208;-71
2022/05/18 01:30:42;;;;;;;1.23;0.80;;;18.20;99.90;;;;;;4935700;29;20576;-72
2022/05/18 01:33:10;;;;;;;0.87;0.80;;;18.20;99.90;;;;;;4935595;29;20228;-75
2022/05/18 01:35:41;;;;;;;1.30;0.80;;;18.20;99.90;;;;;;4935853;29;20212;-72
2022/05/18 01:38:12;;;;;;;1.80;0.63;;;18.30;99.90;;;;;;4935337;29;20213;-74
2022/05/18 01:40:46;;;;;;;0.80;0.67;;;18.30;99.90;;;;;;4935675;29;20248;-72
2022/05/18 01:43:18;;;;;;;1.23;0.57;;;18.30;99.90;;;;;;4935291;29;20208;-75
2022/05/18 01:45:50;;;;;;;1.30;0.80;;;18.20;99.90;;;;;;4935366;29;20216;-74
2022/05/18 01:48:18;;;;;;;1.33;0.70;;;18.10;99.90;;;;;;4935464;29;20205;-72
2022/05/18 01:50:45;;;;;;;0.83;0.60;;;18.30;99.90;;;;;;4935128;29;20209;-75
2022/05/18 01:53:12;;;;;;;1.57;0.90;;;18.20;99.90;;;;;;4935258;29;20251;-72
2022/05/18 01:55:39;;;;;;;1.60;0.80;;;18.30;99.90;;;;;;4935433;29;20209;-73
2022/05/18 01:58:09;;;;;;;1.27;0.90;;;18.30;99.90;;;;;;4935184;29;20211;-72
2022/05/18 02:00:37;;;;;;;0.90;0.60;;;18.20;99.90;;;;;;4934695;29;20209;-72
2022/05/18 02:03:04;;;;;;;3.67;1.10;;;18.40;99.90;;;;;;4935102;29;20212;-73
2022/05/18 02:05:31;;;;;;;1.07;0.93;;;18.60;99.90;;;;;;4935148;29;20216;-72
2022/05/18 02:07:58;;;;;;;1.50;0.87;;;18.60;99.90;;;;;;4935295;29;20672;-74
2022/05/18 02:10:26;;;;;;;2.00;0.70;;;18.50;99.90;;;;;;4935442;29;20209;-72
2022/05/18 02:12:53;;;;;;;0.83;0.63;;;18.70;99.90;;;;;;4935265;29;20237;-73
2022/05/18 02:15:20;;;;;;;1.90;0.80;;;18.90;99.90;;;;;;4934869;29;20229;-71
2022/05/18 02:17:49;;;;;;;1.37;0.80;;;19.00;99.90;;;;;;4937664;29;20213;-75
2022/05/18 02:20:16;;;;;;;1.90;0.70;;;19.20;99.90;;;;;;4938814;29;20209;-74
2022/05/18 02:22:43;;;;;;;1.40;0.80;;;19.20;99.90;;;;;;4938504;29;20220;-72
2022/05/18 02:25:10;;;;;;;1.17;0.97;;;19.20;99.90;;;;;;4938688;29;20224;-74
2022/05/18 02:27:37;;;;;;;3.90;1.20;;;19.20;99.90;;;;;;4938834;29;20213;-72
2022/05/18 02:30:06;;;;;;;3.20;0.80;;;19.30;99.90;;;;;;4938786;29;20209;-72
2022/05/18 02:32:32;;;;;;;1.33;0.80;;;19.30;99.90;;;;;;4938954;29;20248;-75
2022/05/18 02:35:01;;;;;;;1.40;1.10;;;19.30;99.90;;;;;;4937813;29;20708;-74
2022/05/18 02:37:28;;;;;;;3.05;1.05;;;19.40;99.90;;;;;;4938894;29;20211;-72
2022/05/18 02:39:54;;;;;;;1.90;0.80;;;19.50;99.90;;;;;;4938813;29;20216;-72
2022/05/18 02:42:21;;;;;;;1.05;0.70;;;19.50;99.90;;;;;;4938978;29;20216;-74
2022/05/18 02:44:48;;;;;;;2.50;1.10;;;19.50;99.90;;;;;;4938970;29;20235;-72
2022/05/18 02:47:15;;;;;;;2.08;0.80;;;19.50;99.90;;;;;;4938873;29;20303;-72
2022/05/18 02:49:42;;;;;;;1.27;1.02;;;19.30;99.90;;;;;;4938172;29;20252;-72
2022/05/18 02:52:10;;;;;;;2.83;0.77;;;19.40;99.90;;;;;;4938389;29;20212;-72
2022/05/18 02:57:21;;;;;;;1.23;0.87;;;19.30;99.90;;;;;;4938435;29;20211;-72
2022/05/18 02:59:49;;;;;;;1.85;0.98;;;19.30;99.90;;;;;;4937563;29;20648;-73
2022/05/18 03:02:16;;;;;;;1.90;0.80;;;19.20;99.90;;;;;;4938302;29;20684;-73
2022/05/18 03:04:43;;;;;;;1.10;0.95;;;19.20;99.90;;;;;;4938356;29;20228;-72
2022/05/18 03:07:11;;;;;;;0.90;0.80;;;19.00;99.90;;;;;;4938190;29;20215;-71
2022/05/18 03:09:38;;;;;;;1.42;0.80;;;19.00;99.90;;;;;;4937947;29;20209;-72
2022/05/18 03:12:05;;;;;;;2.03;0.85;;;19.00;99.90;;;;;;4938116;29;20208;-72
2022/05/18 03:14:32;;;;;;;1.35;1.00;;;19.00;99.90;;;;;;4938176;29;20236;-71
2022/05/18 03:17:01;;;;;;;1.65;1.00;;;18.90;99.90;;;;;;4937937;29;20236;-72
2022/05/18 03:19:28;;;;;;;1.30;0.90;;;18.90;99.90;;;;;;4938116;29;20620;-72
2022/05/18 03:24:40;;;;;;;3.17;1.00;;;19.00;99.90;;;;;;4937825;29;20256;-74
2022/05/18 03:27:10;;;;;;;2.00;0.93;;;19.00;99.90;;;;;;4937660;29;20303;-72
2022/05/18 03:29:37;;;;;;;0.80;0.80;;;19.00;99.90;;;;;;4938218;29;20205;-75
2022/05/18 03:32:05;;;;;;;1.67;1.30;;;19.10;99.90;;;;;;4938042;29;20220;-72
2022/05/18 03:34:33;;;;;;;1.83;0.90;;;18.90;99.90;;;;;;4936878;29;20706;-71
2022/05/18 03:37:00;;;;;;;1.93;1.03;;;18.90;99.90;;;;;;4936752;29;20212;-71
2022/05/18 03:39:26;;;;;;;3.20;1.03;;;18.90;99.90;;;;;;4937746;29;20204;-72
2022/05/18 03:41:55;;;;;;;2.37;0.97;;;18.90;99.90;;;;;;4937656;29;20675;-72
2022/05/18 03:44:22;;;;;;;1.93;1.00;;;18.90;99.90;;;;;;4937777;29;20240;-72
2022/05/18 03:46:49;;;;;;;2.50;1.00;;;18.90;99.90;;;;;;4937687;29;20571;-72
2022/05/18 03:49:16;;;;;;;1.30;0.88;;;18.90;99.90;;;;;;4937622;29;20687;-72
2022/05/18 03:51:43;;;;;;;2.97;1.30;;;18.90;99.90;;;;;;4936858;29;20201;-73
2022/05/18 03:54:10;;;;;;;1.60;0.90;;;18.90;99.90;;;;;;4937343;29;20267;-72
2022/05/18 03:56:37;;;;;;;1.47;0.90;;;19.00;99.90;;;;;;4937327;29;20215;-72
2022/05/18 03:59:05;;;;;;;2.30;1.17;;;19.00;99.90;;;;;;4937231;29;20197;-71
2022/05/18 04:01:32;;;;;;;2.60;1.03;;;19.00;99.90;;;;;;4936553;29;20650;-72
2022/05/18 04:03:58;;;;;;;1.60;1.10;;;19.00;99.90;;;;;;4936729;29;20228;-72
2022/05/18 04:06:25;;;;;;;1.50;1.00;;;19.10;99.90;;;;;;4937255;29;20209;-71
2022/05/18 04:08:53;;;;;;;0.90;0.80;;;19.00;99.90;;;;;;4937186;29;20221;-72
2022/05/18 04:11:20;;;;;;;2.40;0.80;;;19.00;99.90;;;;;;4937221;29;20215;-72
2022/05/18 04:13:47;;;;;;;3.53;1.03;;;19.00;99.90;;;;;;4936854;29;20699;-72
2022/05/18 04:16:15;;;;;;;3.03;1.17;;;19.10;99.90;;;;;;4936815;29;20213;-72
2022/05/18 04:18:41;;;;;;;1.95;1.02;;;19.20;99.90;;;;;;4936457;29;20213;-72
2022/05/18 04:21:09;;;;;;;2.20;1.23;;;19.30;99.90;;;;;;4937164;29;20230;-74
2022/05/18 04:23:38;;;;;;;1.63;0.90;;;19.40;99.90;;;;;;4936833;29;20229;-72
2022/05/18 04:26:05;;;;;;;1.77;0.80;;;19.50;99.90;;;;;;4936978;29;20267;-72
2022/05/18 04:28:32;;;;;;;1.30;0.93;;;19.50;99.90;;;;;;4937131;29;20212;-72
2022/05/18 04:31:00;;;;;;;1.45;1.00;;;19.60;99.90;;;;;;4936495;29;20678;-72
2022/05/18 04:33:29;;;;;;;2.67;1.10;;;19.60;99.90;;;;;;4936765;29;20251;-72
2022/05/18 04:35:56;;;;;;;1.20;0.90;;;19.60;99.90;;;;;;4936175;29;20695;-72
2022/05/18 04:38:23;;;;;;;4.85;1.10;;;19.70;99.90;;;;;;4935745;29;20205;-72
2022/05/18 04:40:50;;;;;;;2.65;1.17;;;19.80;99.90;;;;;;4936229;29;20213;-72
2022/05/18 04:43:20;;;;;;;1.38;0.80;;;19.90;99.90;;;;;;4936561;29;20217;-73
2022/05/18 04:45:46;;;;;;;1.77;0.90;;;20.00;99.90;;;;;;4936374;29;20727;-74
2022/05/18 04:48:17;;;;;;;2.50;1.23;;;20.00;99.90;;;;;;4936654;29;20208;-74
2022/05/18 04:50:47;;;;;;;2.20;1.17;;;20.10;99.90;;;;;;4935909;29;20213;-72
2022/05/18 04:53:15;;;;;;;1.30;1.00;;;20.10;99.90;;;;;;4935580;29;20779;-74
2022/05/18 04:55:42;;;;;;;2.45;0.90;;;20.20;99.90;;;;;;4935378;29;20220;-72
2022/05/18 04:58:09;;;;;;;3.08;0.88;;;20.70;99.90;;;;;;4935602;29;20291;-72
2022/05/18 05:00:37;;;;;;;1.58;0.90;;;21.60;99.90;;;;;;4934948;29;20197;-72
2022/05/18 05:03:04;;;;;;;1.30;0.90;;;22.20;99.90;;;;;;4935478;29;20213;-75
2022/05/18 05:05:31;;;;;;;2.85;0.90;;;22.50;99.90;;;;;;4935915;29;20205;-73
2022/05/18 05:07:59;;;;;;;2.47;0.88;;;22.60;99.90;;;;;;4936219;29;20691;-76
2022/05/18 05:10:26;;;;;;;1.63;0.85;;;22.60;99.90;;;;;;4935654;29;20213;-75
2022/05/18 05:12:53;;;;;;;1.17;0.85;;;22.40;99.90;;;;;;4935603;29;20683;-74
2022/05/18 05:15:20;;;;;;;1.98;1.17;;;22.20;99.90;;;;;;4936059;29;20228;-75
2022/05/18 05:17:47;;;;;;;2.65;1.10;;;22.20;99.90;;;;;;4935406;29;20654;-73
2022/05/18 05:20:14;;;;;;;1.13;1.00;;;22.00;99.90;;;;;;4935931;29;20240;-75
2022/05/18 05:22:41;;;;;;;3.30;0.95;;;22.00;99.90;;;;;;4935653;29;20211;-73
2022/05/18 05:25:10;;;;;;;1.65;0.90;;;21.90;99.90;;;;;;4936181;29;20734;-73
2022/05/18 05:27:37;;;;;;;7.30;0.80;;;21.90;99.90;;;;;;4935743;29;20216;-72
2022/05/18 05:30:06;;;;;;;2.35;1.02;;;21.80;99.90;;;;;;4935379;29;20215;-75
2022/05/18 05:32:33;;;;;;;4.65;0.90;;;21.80;99.90;;;;;;4935521;29;20223;-72
2022/05/18 05:35:00;;;;;;;1.42;0.90;;;21.80;99.90;;;;;;4934568;29;20233;-73
2022/05/18 05:37:27;;;;;;;1.85;1.10;;;21.80;99.90;;;;;;4935173;29;20205;-72
2022/05/18 05:39:55;;;;;;;2.58;1.02;;;21.80;99.90;;;;;;4935316;29;20216;-72
2022/05/18 05:42:23;;;;;;;1.40;0.95;;;21.80;99.90;;;;;;4935156;29;20201;-72
2022/05/18 05:44:50;;;;;;;2.03;0.88;;;21.70;99.90;;;;;;4935428;29;20584;-74
2022/05/18 05:47:17;;;;;;;2.15;0.88;;;21.80;99.90;;;;;;4935625;29;20212;-75
2022/05/18 05:49:44;;;;;;;2.58;1.60;;;21.60;99.90;;;;;;4934423;29;20208;-75
2022/05/18 05:52:12;;;;;;;2.20;1.00;;;21.50;99.90;;;;;;4934404;29;20212;-74
2022/05/18 05:54:39;;;;;;;2.20;0.82;;;21.60;99.90;;;;;;4935856;29;20249;-72
2022/05/18 05:57:06;;;;;;;2.80;0.85;;;21.70;99.90;;;;;;4927058;29;20220;-75
2022/05/18 05:59:36;;;;;;;4.47;1.00;;;21.80;99.90;;;;;;4929947;29;20205;-73
2022/05/18 06:02:05;;;;;;;2.47;1.30;;;21.90;99.90;;;;;;4923527;29;20209;-73
2022/05/18 06:04:34;;;;;;;4.05;1.00;;;22.10;99.90;;;;;;4929175;29;20593;-74
2022/05/18 06:07:01;;;;;;;2.43;0.80;;;23.20;99.90;;;;;;4918932;29;20458;-72
2022/05/18 06:09:28;;;;;;;2.08;1.10;;;23.80;99.90;;;;;;4930142;29;20290;-75
2022/05/18 06:11:55;;;;;;;0.88;0.63;;;24.80;99.90;;;;;;4924514;29;20201;-72
2022/05/18 06:14:22;;;;;;;1.80;0.95;;;25.80;99.90;;;;;;4935359;29;20240;-72
2022/05/18 06:16:50;;;;;;;2.65;0.80;;;26.60;99.90;;;;;;4935464;29;20212;-73
2022/05/18 06:19:18;;;;;;;3.15;1.65;;;26.70;99.90;;;;;;4919845;29;20684;-74
2022/05/18 06:21:47;;;;;;;2.22;0.82;;;26.60;99.90;;;;;;4916208;29;20220;-74
2022/05/18 06:24:15;;;;;;;3.20;0.88;;;26.20;99.90;;;;;;4932165;29;20235;-76
2022/05/18 06:26:42;;;;;;;1.20;0.77;;;26.10;99.90;;;;;;4928196;29;20206;-72
2022/05/18 06:29:09;;;;;;;2.28;0.93;;;25.70;99.90;;;;;;4933132;29;20216;-75
2022/05/18 06:31:36;;;;;;;2.67;0.95;;;25.80;99.90;;;;;;4920577;29;20212;-75
2022/05/18 06:34:04;;;;;;;1.77;1.00;;;26.40;99.90;;;;;;4926003;29;20226;-73
2022/05/18 06:36:34;;;;;;;1.83;0.82;;;27.30;99.90;;;;;;4930119;29;20653;-75
2022/05/18 06:39:01;;;;;;;1.38;0.90;;;28.00;99.90;;;;;;4933499;29;20208;-75
2022/05/18 06:41:27;;;;;;;1.75;1.00;;;28.60;99.70;;;;;;4934439;29;20208;-74
2022/05/18 06:43:58;;;;;;;3.70;0.90;;;28.70;98.30;;;;;;4932313;29;20228;-73
2022/05/18 06:46:27;;;;;;;1.52;1.00;;;28.00;98.80;;;;;;4919586;29;20213;-73
2022/05/18 06:48:55;;;;;;;1.88;0.98;;;27.30;99.40;;;;;;4931741;29;20201;-74
2022/05/18 06:51:26;;;;;;;2.03;0.90;;;26.90;99.90;;;;;;4927308;29;20201;-70
2022/05/18 06:53:54;;;;;;;1.35;0.90;;;27.20;99.90;;;;;;4918389;29;20244;-73
2022/05/18 06:56:22;;;;;;;2.25;0.90;;;28.10;99.00;;;;;;4925356;29;20591;-71
2022/05/18 06:58:50;;;;;;;1.45;0.88;;;29.00;97.80;;;;;;4945431;28;20207;-71
2022/05/18 07:01:17;;;;;;;3.95;0.80;;;29.50;96.80;;;;;;4922817;29;20214;-71
2022/05/18 07:03:45;;;;;;;3.30;1.08;;;29.50;96.70;;;;;;4933119;29;20599;-74
2022/05/18 07:06:13;;;;;;;1.98;1.10;;;29.40;96.60;;;;;;4937220;29;20232;-73
2022/05/18 07:08:42;;;;;;;6.47;0.90;;;28.70;96.90;;;;;;4930684;29;20205;-75
2022/05/18 07:11:09;;;;;;;2.22;0.90;;;28.80;96.00;;;;;;4931339;29;20304;-73
2022/05/18 07:13:36;;;;;;;3.25;1.05;;;28.80;96.10;;;;;;4935818;29;20243;-75
2022/05/18 07:16:04;;;;;;;4.75;1.27;;;28.30;97.00;;;;;;4920935;29;20224;-74
2022/05/18 07:18:33;;;;;;;7.25;1.08;;;28.20;97.10;;;;;;4935531;29;20205;-75
2022/05/18 07:21:02;;;;;;;4.53;1.33;;;28.10;96.80;;;;;;4927005;29;20205;-72
2022/05/18 07:23:30;;;;;;;3.42;1.48;;;27.60;97.60;;;;;;4929555;29;20235;-73
2022/05/18 07:25:59;;;;;;;3.53;0.70;;;27.50;97.90;;;;;;4920272;29;20206;-73
2022/05/18 07:28:26;;;;;;;2.80;0.95;;;27.10;98.10;;;;;;4938669;29;20205;-73
2022/05/18 07:30:55;;;;;;;6.28;0.90;;;27.10;98.00;;;;;;4927447;29;20202;-72
2022/05/18 07:33:22;;;;;;;2.92;0.68;;;27.00;98.10;;;;;;4925157;29;20248;-71
2022/05/18 07:35:50;;;;;;;0.80;0.50;;;26.90;97.80;;;;;;4931780;29;20588;-69
2022/05/18 07:38:18;;;;;;;2.15;0.77;;;26.90;96.60;;;;;;4924490;29;20205;-72
2022/05/18 07:40:46;;;;;;;1.08;0.70;;;27.20;97.10;;;;;;4935452;29;20213;-71
2022/05/18 07:43:14;;;;;;;2.58;0.60;;;27.10;96.30;;;;;;4928303;29;20248;-70
2022/05/18 07:45:41;;;;;;;1.75;0.90;;;27.10;96.80;;;;;;4935282;29;20227;-69
2022/05/18 07:48:08;;;;;;;2.90;0.70;;;27.20;97.00;;;;;;4925663;29;20456;-70
2022/05/18 07:50:35;;;;;;;1.23;0.43;;;27.30;95.90;;;;;;4929718;29;20209;-75
2022/05/18 07:53:02;;;;;;;2.08;0.70;;;27.40;96.10;;;;;;4923801;29;20209;-74
2022/05/18 07:55:29;;;;;;;1.27;0.70;;;27.20;95.50;;;;;;4935351;29;20255;-72
2022/05/18 07:57:56;;;;;;;0.93;0.50;;;27.00;96.10;;;;;;4925280;29;20204;-71
2022/05/18 08:00:25;;;;;;;3.22;0.75;;;27.30;95.40;;;;;;4930651;29;20212;-73
2022/05/18 08:02:52;;;;;;;0.77;0.50;;;27.60;94.40;;;;;;4933247;29;20205;-70
2022/05/18 08:05:19;;;;;;;1.00;0.57;;;27.70;94.80;;;;;;4935361;29;20235;-71
2022/05/18 08:07:49;;;;;;;2.30;0.50;;;27.70;94.70;;;;;;4934528;29;20611;-71
2022/05/18 08:15:49;;;;;;;3.58;0.95;;;27.60;93.80;;;;;;4933273;29;20239;-73
2022/05/18 08:18:16;;;;;;;2.72;0.60;;;28.10;94.60;;;;;;4924754;29;20719;-75
2022/05/18 08:20:45;;;;;;;0.85;0.40;;;28.90;93.20;;;;;;4928197;29;20200;-73
2022/05/18 08:23:12;;;;;;;2.00;0.60;;;29.50;92.80;;;;;;4926046;29;20239;-73
2022/05/18 08:25:39;;;;;;;1.65;0.70;;;29.40;92.80;;;;;;4934557;29;20557;-71
2022/05/18 08:28:08;;;;;;;2.25;0.52;;;29.20;91.80;;;;;;4921963;29;20201;-73
2022/05/18 08:30:35;;;;;;;2.65;0.52;;;28.90;92.10;;;;;;4919639;29;20203;-72
2022/05/18 08:33:04;;;;;;;2.58;0.65;;;28.90;92.50;;;;;;4931045;28;20205;-72
2022/05/18 08:35:31;;;;;;;2.75;0.65;;;28.70;92.90;;;;;;4933775;29;20243;-71
2022/05/18 08:37:58;;;;;;;5.40;0.70;;;28.70;92.60;;;;;;4928247;29;20300;-72
2022/05/18 08:40:40;;;;;;;0.90;0.60;;;29.30;92.10;;;;;;4929942;29;20209;-71
2022/05/18 08:43:09;;;;;;;4.13;0.60;;;29.40;91.20;;;;;;4925568;29;20200;-71
2022/05/18 08:45:38;;;;;;;1.00;0.57;;;29.40;91.90;;;;;;4933001;29;20667;-71
2022/05/18 08:48:20;;;;;;;1.83;0.43;;;29.00;91.70;;;;;;4922850;29;20216;-72
2022/05/18 08:50:48;;;;;;;0.90;0.50;;;29.40;91.40;;;;;;4934078;29;20205;-76
2022/05/18 08:53:42;;;;;;;1.48;0.50;;;29.50;91.00;;;;;;4922713;29;20217;-75
2022/05/18 08:56:15;;;;;;;1.35;0.77;;;29.70;90.20;;;;;;4932989;29;20236;-75
2022/05/18 08:58:45;;;;;;;4.68;0.85;;;30.30;89.60;;;;;;4934057;29;20224;-72
2022/05/18 09:01:15;;;;;;;0.30;0.30;;;30.40;90.40;;;;;;4933060;29;20600;-71
2022/05/18 09:03:47;;;;;;;4.30;0.47;;;30.30;87.40;;;;;;4932898;29;20730;-71
2022/05/18 09:06:29;;;;;;;1.52;0.43;;;29.70;88.40;;;;;;4933825;29;20227;-76
2022/05/18 09:11:48;;;;;;;1.95;0.75;;;28.50;91.00;;;;;;4932138;29;20670;-71
2022/05/18 09:14:19;;;;;;;2.75;0.60;;;28.30;90.70;;;;;;4926898;29;20228;-72
2022/05/18 09:16:54;;;;;;;0.57;0.45;;;28.20;91.10;;;;;;4924473;29;20748;-72
2022/05/18 09:19:30;;;;;;;1.73;0.60;;;28.40;90.30;;;;;;4932413;29;20235;-71
2022/05/18 09:22:07;;;;;;;3.83;0.60;;;28.20;90.60;;;;;;4917933;29;20205;-75
2022/05/18 09:24:46;;;;;;;6.25;0.68;;;28.30;91.00;;;;;;4925778;29;20229;-71
2022/05/18 09:27:27;;;;;;;1.55;0.40;;;28.40;90.70;;;;;;4925294;29;20212;-76
2022/05/18 09:30:06;;;;;;;2.10;0.50;;;28.50;90.50;;;;;;4930659;29;20291;-75
2022/05/18 09:32:50;;;;;;;6.90;1.00;;;28.80;90.60;;;;;;4928646;29;20215;-72
2022/05/18 09:35:30;;;;;;;1.00;0.50;;;28.90;90.90;;;;;;4928260;29;20240;-71
2022/05/18 09:38:02;;;;;;;2.10;0.50;;;29.40;89.10;;;;;;4923236;29;20294;-73
2022/05/18 09:40:33;;;;;;;4.20;1.20;;;29.30;90.30;;;;;;4926945;29;20220;-74
2022/05/18 09:43:07;;;;;;;2.65;0.82;;;29.30;90.30;;;;;;4933321;29;20660;-71
2022/05/18 09:45:37;;;;;;;4.07;1.00;;;29.30;90.00;;;;;;4927944;29;20205;-71
2022/05/18 09:48:10;;;;;;;1.98;0.55;;;29.70;90.50;;;;;;4929681;29;20205;-73
2022/05/18 09:50:41;;;;;;;1.50;0.63;;;29.50;90.20;;;;;;4928467;29;20292;-73
2022/05/18 09:53:09;;;;;;;0.52;0.40;;;29.80;88.40;;;;;;4929822;29;20227;-71
2022/05/18 09:55:36;;;;;;;1.23;0.60;;;29.50;89.30;;;;;;4930277;29;20228;-71
2022/05/18 09:58:07;;;;;;;1.80;0.50;;;29.30;88.80;;;;;;4930071;29;20210;-71
2022/05/18 10:00:36;;;;;;;1.17;0.60;;;28.70;90.90;;;;;;4923374;29;20212;-75
2022/05/18 10:08:49;;;;;;;0.38;0.30;;;27.90;90.30;;;;;;4929925;29;20279;-70
2022/05/18 10:11:18;;;;;;;20.70;2.22;;;27.70;91.80;;;;;;4928046;29;20216;-73
2022/05/18 10:13:55;;;;;;;2.60;0.70;;;27.20;91.90;;;;;;4934456;29;20232;-71
2022/05/18 10:16:40;;;;;;;2.33;0.60;;;27.20;91.40;;;;;;4919911;29;20229;-70
2022/05/18 10:19:15;;;;;;;1.10;0.88;;;27.10;92.10;;;;;;4924140;29;20806;-75
2022/05/18 10:21:52;;;;;;;0.63;0.40;;;26.80;92.40;;;;;;4929486;29;20676;-70
2022/05/18 10:24:27;;;;;;;1.23;0.40;;;26.50;92.50;;;;;;4918823;29;20224;-70
2022/05/18 10:27:11;;;;;;;2.25;0.50;;;26.60;92.20;;;;;;4928571;29;20208;-74
2022/05/18 10:29:38;;;;;;;0.70;0.50;;;26.60;92.20;;;;;;4942801;29;20259;-71
2022/05/18 10:32:09;;;;;;;3.67;0.68;;;26.60;93.20;;;;;;4935135;28;20559;-70
2022/05/18 10:34:43;;;;;;;1.35;0.60;;;26.60;93.00;;;;;;4927927;29;20230;-74
2022/05/18 10:37:14;;;;;;;0.95;0.60;;;26.40;92.40;;;;;;4926371;29;20228;-70
2022/05/18 10:39:44;;;;;;;1.63;0.55;;;26.50;92.50;;;;;;4923493;29;20216;-70
2022/05/18 10:42:27;;;;;;;1.35;0.70;;;26.60;92.30;;;;;;4934524;29;20664;-71
2022/05/18 10:44:56;;;;;;;2.22;1.00;;;26.60;93.10;;;;;;4930265;29;20703;-72
2022/05/18 10:47:28;;;;;;;1.38;1.05;;;26.70;93.10;;;;;;4938324;29;20212;-71
2022/05/18 10:50:23;;;;;;;1.23;0.70;;;26.80;93.10;;;;;;4921981;29;20680;-71
2022/05/18 10:52:52;;;;;;;0.88;0.70;;;26.70;93.30;;;;;;4929569;29;20209;-71
2022/05/18 10:55:20;;;;;;;2.22;0.60;;;26.70;93.10;;;;;;4932369;29;20320;-75
2022/05/18 10:57:55;;;;;;;1.05;0.70;;;26.90;93.40;;;;;;4933566;29;20216;-73
2022/05/18 11:00:24;;;;;;;9.52;1.00;;;27.00;92.80;;;;;;4933786;29;20572;-70
2022/05/18 11:02:56;;;;;;;1.15;0.70;;;27.00;92.80;;;;;;4934316;29;20201;-71
2022/05/18 11:05:36;;;;;;;1.35;0.57;;;27.00;92.40;;;;;;4936686;29;20267;-74
2022/05/18 11:08:11;;;;;;;1.40;0.60;;;26.90;92.90;;;;;;4935800;29;20276;-70
2022/05/18 11:10:48;;;;;;;1.65;0.93;;;26.90;93.50;;;;;;4930411;29;20201;-71
2022/05/18 11:13:28;;;;;;;1.92;0.80;;;27.00;93.10;;;;;;4936953;29;20197;-74
2022/05/18 11:16:04;;;;;;;2.25;0.70;;;26.80;92.40;;;;;;4932561;29;20228;-73
2022/05/18 11:18:39;;;;;;;1.77;0.70;;;26.90;92.30;;;;;;4930043;29;20207;-72
2022/05/18 11:21:15;;;;;;;1.90;0.80;;;26.90;92.10;;;;;;4937136;29;20197;-69
2022/05/18 11:23:53;;;;;;;2.88;0.70;;;26.90;92.80;;;;;;4921875;29;20240;-71
2022/05/18 11:26:32;;;;;;;4.90;0.60;;;27.00;92.50;;;;;;4924894;29;20695;-73
2022/05/18 11:29:10;;;;;;;1.00;0.80;;;26.90;93.10;;;;;;4932060;29;20215;-72
2022/05/18 11:32:00;;;;;;;4.88;0.88;;;26.90;92.60;;;;;;4931993;29;20288;-72
2022/05/18 11:34:37;;;;;;;2.92;0.93;;;27.10;93.70;;;;;;4924077;29;20312;-73
2022/05/18 11:37:16;;;;;;;1.98;0.60;;;27.20;93.50;;;;;;4916352;29;20245;-70
2022/05/18 11:39:54;;;;;;;3.20;0.80;;;27.30;93.90;;;;;;4916076;29;20850;-69
2022/05/18 11:42:28;;;;;;;2.65;0.70;;;27.40;92.80;;;;;;4925702;29;20357;-72
2022/05/18 11:45:07;;;;;;;1.40;0.80;;;27.40;92.40;;;;;;4931504;29;20236;-72
2022/05/18 11:47:59;;;;;;;2.95;1.00;;;27.00;92.90;;;;;;4930331;29;20205;-72
2022/05/18 11:50:35;;;;;;;0.85;0.70;;;27.10;92.70;;;;;;4933865;29;20201;-72
2022/05/18 11:53:19;;;;;;;1.17;0.65;;;27.00;93.10;;;;;;4930057;29;20208;-74
2022/05/18 11:55:59;;;;;;;3.65;0.82;;;27.00;93.70;;;;;;4934354;29;20239;-70
2022/05/18 11:58:47;;;;;;;2.70;0.80;;;27.10;93.20;;;;;;4929925;29;20293;-70
2022/05/18 12:01:22;;;;;;;0.85;0.60;;;27.20;92.30;;;;;;4927699;29;20212;-73
2022/05/18 12:04:10;;;;;;;1.40;0.85;;;27.30;92.30;;;;;;4926521;29;20719;-73
2022/05/18 12:07:01;;;;;;;2.08;0.85;;;27.30;92.90;;;;;;4923032;29;20205;-73
2022/05/18 12:09:43;;;;;;;2.25;0.77;;;27.30;92.50;;;;;;4931148;29;20208;-73
2022/05/18 12:12:19;;;;;;;1.50;0.55;;;27.40;92.50;;;;;;4925378;29;20299;-71
2022/05/18 12:14:56;;;;;;;1.40;0.80;;;27.60;92.70;;;;;;4924591;29;20225;-73
2022/05/18 12:17:26;;;;;;;2.58;0.70;;;27.50;92.60;;;;;;4929374;29;20577;-72
2022/05/18 12:19:59;;;;;;;1.02;0.80;;;27.40;92.60;;;;;;4935478;29;20205;-73
2022/05/18 12:22:32;;;;;;;1.08;0.80;;;27.40;92.80;;;;;;4921391;29;20205;-74
2022/05/18 12:24:59;;;;;;;1.85;0.70;;;27.20;92.60;;;;;;4935020;29;20674;-73
2022/05/18 12:27:28;;;;;;;3.53;1.30;;;27.40;92.70;;;;;;4928585;29;20216;-74
2022/05/18 12:29:59;;;;;;;1.27;0.65;;;27.50;92.00;;;;;;4931753;29;20208;-73
2022/05/18 12:32:27;;;;;;;0.70;0.70;;;27.50;92.10;;;;;;4924970;29;20200;-73
2022/05/18 12:35:06;;;;;;;1.08;0.68;;;27.60;92.60;;;;;;4924586;29;20714;-74
2022/05/18 12:37:48;;;;;;;6.45;0.82;;;27.60;92.00;;;;;;4935584;29;20205;-71
2022/05/18 12:40:34;;;;;;;3.90;0.80;;;27.50;92.80;;;;;;4934530;29;20212;-70
2022/05/18 12:43:25;;;;;;;10.18;0.90;;;27.80;92.50;;;;;;4927333;29;20205;-70
2022/05/18 12:45:58;;;;;;;4.15;0.80;;;27.90;92.40;;;;;;4929521;29;20201;-73
2022/05/18 12:48:37;;;;;;;5.65;1.00;;;27.90;91.80;;;;;;4928314;29;20213;-71
2022/05/18 12:51:12;;;;;;;1.17;0.60;;;28.00;91.20;;;;;;4933057;29;20205;-74
2022/05/18 12:54:00;;;;;;;1.45;0.77;;;27.90;91.60;;;;;;4933629;29;20304;-72
2022/05/18 12:56:48;;;;;;;3.60;0.80;;;27.90;92.10;;;;;;4924247;29;20224;-71
2022/05/18 12:59:19;;;;;;;1.63;0.80;;;27.80;92.30;;;;;;4922297;29;20213;-70
2022/05/18 13:01:51;;;;;;;1.52;0.70;;;27.70;92.20;;;;;;4931624;29;20241;-70
2022/05/18 13:04:40;;;;;;;1.13;0.70;;;27.80;91.90;;;;;;4920154;29;20591;-70
2022/05/18 13:07:22;;;;;;;1.92;0.65;;;27.70;91.50;;;;;;4928781;29;20205;-70
2022/05/18 13:09:49;;;;;;;2.60;0.60;;;27.50;91.60;;;;;;4919802;29;20296;-71
2022/05/18 13:12:56;;;;;;;6.30;0.70;;;27.50;92.30;;;;;;4927003;29;20557;-75
2022/05/18 13:15:55;;;;;;;1.00;0.65;;;27.50;92.50;;;;;;4920967;29;20224;-71
2022/05/18 13:18:29;;;;;;;0.90;0.55;;;27.50;92.50;;;;;;4929128;29;20256;-70
2022/05/18 13:21:05;;;;;;;2.00;0.80;;;27.50;91.40;;;;;;4927326;29;20202;-74
2022/05/18 13:23:50;;;;;;;1.48;0.60;;;27.60;91.20;;;;;;4929962;29;20227;-71
2022/05/18 13:26:29;;;;;;;0.70;0.55;;;27.80;91.20;;;;;;4927196;29;20205;-71